Time;durP1;ratioP1;P1;durP2;ratioP2;P2;SDS_P1;SDS_P2;PMS_P1;PMS_P2;Temp;Humidity;BMP_temperature;BMP_pressure;BME280_temperature;BME280_humidity;BME280_pressure;Samples;Min_cycle;Max_cycle;Signal;HPM_P1;HPM_P2
2021/07/17 00:02:11;;;;;;;0.10;0.10;;;;;;;;;;5056418;28;20045;-74
2021/07/17 00:04:37;;;;;;;0.10;0.10;;;;;;;;;;5055729;28;20070;-74
2021/07/17 00:07:04;;;;;;;0.20;0.20;;;;;;;;;;5056330;28;20435;-74
2021/07/17 00:09:30;;;;;;;0.20;0.20;;;;;;;;;;5056420;28;20049;-74
2021/07/17 00:11:56;;;;;;;0.20;0.20;;;;;;;;;;5055553;28;20131;-74
2021/07/17 00:14:22;;;;;;;0.20;0.20;;;;;;;;;;5055444;28;20041;-74
2021/07/17 00:16:48;;;;;;;0.30;0.30;;;;;;;;;;5055336;28;20068;-74
2021/07/17 00:19:15;;;;;;;0.13;0.13;;;;;;;;;;5055669;28;20040;-74
2021/07/17 00:21:41;;;;;;;0.13;0.13;;;;;;;;;;5055202;28;20058;-74
2021/07/17 00:24:07;;;;;;;0.10;0.10;;;;;;;;;;5055503;28;20029;-74
2021/07/17 00:26:34;;;;;;;0.10;0.10;;;;;;;;;;5055314;28;20048;-75
2021/07/17 00:29:00;;;;;;;0.22;0.22;;;;;;;;;;5055228;28;20115;-74
2021/07/17 00:31:26;;;;;;;0.10;0.10;;;;;;;;;;5055369;28;20051;-74
2021/07/17 00:33:52;;;;;;;0.20;0.20;;;;;;;;;;5054971;28;20041;-74
2021/07/17 00:36:18;;;;;;;0.10;0.10;;;;;;;;;;5055269;28;20041;-74
2021/07/17 00:38:44;;;;;;;0.20;0.20;;;;;;;;;;5055248;28;20043;-74
2021/07/17 00:41:11;;;;;;;0.20;0.20;;;;;;;;;;5055835;28;20037;-74
2021/07/17 00:43:38;;;;;;;0.10;0.10;;;;;;;;;;5055278;28;20045;-74
2021/07/17 00:46:04;;;;;;;0.20;0.20;;;;;;;;;;5054740;28;20032;-74
2021/07/17 00:48:31;;;;;;;0.15;0.15;;;;;;;;;;5055163;28;20037;-74
2021/07/17 00:50:57;;;;;;;0.30;0.22;;;;;;;;;;5054626;28;20492;-74
2021/07/17 00:53:23;;;;;;;0.20;0.20;;;;;;;;;;5054988;28;20125;-74
2021/07/17 00:55:51;;;;;;;0.30;0.30;;;;;;;;;;5055202;28;20563;-74
2021/07/17 00:58:19;;;;;;;0.20;0.20;;;;;;;;;;5054839;28;20068;-74
2021/07/17 01:00:46;;;;;;;0.17;0.17;;;;;;;;;;5055191;28;20056;-74
2021/07/17 01:03:12;;;;;;;0.20;0.20;;;;;;;;;;5054486;28;20056;-74
2021/07/17 01:05:38;;;;;;;0.10;0.10;;;;;;;;;;5054357;28;20045;-74
2021/07/17 01:08:05;;;;;;;0.20;0.20;;;;;;;;;;5054491;28;20523;-74
2021/07/17 01:10:31;;;;;;;0.30;0.30;;;;;;;;;;5054789;28;20044;-74
2021/07/17 01:12:57;;;;;;;0.13;0.13;;;;;;;;;;5054963;28;20051;-74
2021/07/17 01:15:23;;;;;;;0.10;0.10;;;;;;;;;;5054873;28;20033;-74
2021/07/17 01:17:49;;;;;;;0.15;0.15;;;;;;;;;;5055206;28;20047;-74
2021/07/17 01:20:18;;;;;;;0.10;0.10;;;;;;;;;;5055344;28;20041;-74
2021/07/17 01:22:44;;;;;;;0.10;0.10;;;;;;;;;;5054923;28;20044;-74
2021/07/17 01:25:11;;;;;;;0.30;0.30;;;;;;;;;;5054850;28;20041;-74
2021/07/17 01:27:38;;;;;;;0.10;0.10;;;;;;;;;;5054997;28;20468;-74
2021/07/17 01:30:08;;;;;;;0.10;0.10;;;;;;;;;;5054957;28;20041;-74
2021/07/17 01:32:34;;;;;;;0.10;0.10;;;;;;;;;;5055132;28;20044;-74
2021/07/17 01:35:00;;;;;;;0.20;0.20;;;;;;;;;;5054297;28;20037;-74
2021/07/17 01:37:26;;;;;;;0.25;0.25;;;;;;;;;;5054380;28;20484;-74
2021/07/17 01:39:53;;;;;;;0.10;0.10;;;;;;;;;;5055225;28;20099;-74
2021/07/17 01:42:19;;;;;;;0.10;0.10;;;;;;;;;;5054369;28;20057;-74
2021/07/17 01:44:46;;;;;;;0.10;0.10;;;;;;;;;;5054692;28;20371;-74
2021/07/17 01:47:13;;;;;;;0.10;0.10;;;;;;;;;;5054592;28;20045;-74
2021/07/17 01:49:39;;;;;;;0.20;0.20;;;;;;;;;;5054568;28;20056;-74
2021/07/17 01:52:06;;;;;;;0.25;0.25;;;;;;;;;;5054560;28;20048;-74
2021/07/17 01:54:36;;;;;;;0.10;0.10;;;;;;;;;;5055075;28;20048;-74
2021/07/17 01:57:04;;;;;;;0.10;0.10;;;;;;;;;;5054761;28;20049;-74
2021/07/17 01:59:30;;;;;;;0.10;0.10;;;;;;;;;;5054842;28;20041;-74
2021/07/17 02:01:56;;;;;;;0.10;0.10;;;;;;;;;;5054351;28;20049;-74
2021/07/17 02:04:22;;;;;;;0.10;0.10;;;;;;;;;;5054519;28;20043;-74
2021/07/17 02:06:48;;;;;;;0.10;0.10;;;;;;;;;;5054434;28;20129;-74
2021/07/17 02:09:15;;;;;;;0.17;0.17;;;;;;;;;;5055032;28;20045;-74
2021/07/17 02:11:41;;;;;;;0.10;0.10;;;;;;;;;;5054389;28;20067;-74
2021/07/17 02:14:07;;;;;;;0.10;0.10;;;;;;;;;;5054452;28;20059;-74
2021/07/17 02:16:33;;;;;;;0.10;0.10;;;;;;;;;;5054603;28;20068;-74
2021/07/17 02:19:05;;;;;;;0.10;0.10;;;;;;;;;;5053948;28;20508;-74
2021/07/17 02:21:31;;;;;;;0.10;0.10;;;;;;;;;;5054250;28;20037;-74
2021/07/17 02:23:57;;;;;;;0.10;0.10;;;;;;;;;;5053983;28;20041;-74
2021/07/17 02:26:23;;;;;;;0.10;0.10;;;;;;;;;;5054181;28;20033;-74
2021/07/17 02:28:49;;;;;;;0.10;0.10;;;;;;;;;;5054239;28;20041;-74
2021/07/17 02:31:15;;;;;;;0.30;0.30;;;;;;;;;;5054238;28;20045;-74
2021/07/17 02:33:41;;;;;;;0.30;0.30;;;;;;;;;;5053914;28;20052;-74
2021/07/17 02:36:08;;;;;;;0.10;0.10;;;;;;;;;;5054033;28;20039;-74
2021/07/17 02:38:34;;;;;;;0.20;0.20;;;;;;;;;;5054082;28;20037;-74
2021/07/17 02:41:00;;;;;;;0.40;0.40;;;;;;;;;;5053782;28;20082;-74
2021/07/17 02:43:26;;;;;;;0.10;0.10;;;;;;;;;;5053730;28;20053;-74
2021/07/17 02:45:52;;;;;;;0.40;0.40;;;;;;;;;;5054306;28;20029;-74
2021/07/17 02:48:18;;;;;;;0.15;0.15;;;;;;;;;;5054271;28;20132;-74
2021/07/17 02:50:44;;;;;;;1.02;0.82;;;;;;;;;;5055878;28;20116;-74
2021/07/17 02:53:10;;;;;;;0.20;0.20;;;;;;;;;;5057674;28;20048;-74
2021/07/17 02:55:37;;;;;;;0.10;0.10;;;;;;;;;;5057163;28;20033;-74
2021/07/17 02:58:04;;;;;;;0.10;0.10;;;;;;;;;;5057719;28;20072;-74
2021/07/17 03:00:33;;;;;;;0.10;0.10;;;;;;;;;;5057149;28;20037;-74
2021/07/17 03:03:00;;;;;;;0.20;0.20;;;;;;;;;;5057645;28;20088;-74
2021/07/17 03:05:26;;;;;;;0.20;0.20;;;;;;;;;;5056824;28;20167;-74
2021/07/17 03:07:52;;;;;;;0.10;0.10;;;;;;;;;;5057301;28;20044;-74
2021/07/17 03:10:18;;;;;;;0.22;0.22;;;;;;;;;;5056950;28;20040;-74
2021/07/17 03:12:44;;;;;;;0.10;0.10;;;;;;;;;;5057171;28;20056;-74
2021/07/17 03:15:11;;;;;;;0.10;0.10;;;;;;;;;;5056809;28;20036;-74
2021/07/17 03:17:37;;;;;;;0.10;0.10;;;;;;;;;;5056567;28;20123;-74
2021/07/17 03:20:04;;;;;;;0.20;0.20;;;;;;;;;;5056365;28;20384;-74
2021/07/17 03:22:30;;;;;;;0.10;0.10;;;;;;;;;;5056932;28;20049;-74
2021/07/17 03:24:56;;;;;;;0.10;0.10;;;;;;;;;;5056656;28;20033;-74
2021/07/17 03:27:22;;;;;;;0.17;0.17;;;;;;;;;;5056774;28;20122;-74
2021/07/17 03:29:49;;;;;;;0.10;0.10;;;;;;;;;;5056895;28;20079;-74
2021/07/17 03:32:21;;;;;;;0.10;0.10;;;;;;;;;;5056184;28;20040;-74
2021/07/17 03:34:47;;;;;;;0.20;0.20;;;;;;;;;;5056040;28;20093;-74
2021/07/17 03:37:13;;;;;;;0.52;0.52;;;;;;;;;;5056405;28;20044;-74
2021/07/17 03:39:39;;;;;;;0.17;0.17;;;;;;;;;;5056184;28;20389;-74
2021/07/17 03:42:05;;;;;;;0.10;0.10;;;;;;;;;;5056539;28;20048;-74
2021/07/17 03:44:32;;;;;;;0.30;0.30;;;;;;;;;;5056071;28;20155;-74
2021/07/17 03:46:58;;;;;;;0.10;0.10;;;;;;;;;;5056224;28;20103;-74
2021/07/17 03:49:24;;;;;;;0.10;0.10;;;;;;;;;;5055487;28;20039;-74
2021/07/17 03:51:50;;;;;;;0.52;0.50;;;;;;;;;;5056159;28;20135;-74
2021/07/17 03:54:16;;;;;;;0.30;0.30;;;;;;;;;;5055814;28;20036;-74
2021/07/17 03:56:43;;;;;;;0.10;0.10;;;;;;;;;;5056016;28;20044;-74
2021/07/17 03:59:09;;;;;;;0.20;0.20;;;;;;;;;;5056037;28;20041;-74
2021/07/17 04:01:35;;;;;;;0.30;0.30;;;;;;;;;;5055661;28;20099;-74
2021/07/17 04:04:01;;;;;;;0.10;0.10;;;;;;;;;;5055808;28;20041;-74
2021/07/17 04:06:27;;;;;;;0.10;0.10;;;;;;;;;;5055558;28;20040;-74
2021/07/17 04:08:53;;;;;;;0.10;0.10;;;;;;;;;;5055838;28;20036;-74
2021/07/17 04:11:19;;;;;;;0.10;0.10;;;;;;;;;;5056065;28;20048;-74
2021/07/17 04:13:46;;;;;;;0.10;0.10;;;;;;;;;;5055967;28;20063;-74
2021/07/17 04:16:12;;;;;;;0.10;0.10;;;;;;;;;;5055707;28;20037;-74
2021/07/17 04:18:38;;;;;;;0.20;0.20;;;;;;;;;;5056073;28;20052;-74
2021/07/17 04:21:04;;;;;;;0.10;0.10;;;;;;;;;;5055851;28;20045;-74
2021/07/17 04:23:30;;;;;;;0.22;0.22;;;;;;;;;;5055705;28;20102;-74
2021/07/17 04:25:56;;;;;;;0.10;0.10;;;;;;;;;;5056113;28;20033;-74
2021/07/17 04:28:22;;;;;;;0.10;0.10;;;;;;;;;;5055749;28;20037;-74
2021/07/17 04:30:48;;;;;;;0.10;0.10;;;;;;;;;;5056359;28;20044;-74
2021/07/17 04:33:15;;;;;;;0.13;0.13;;;;;;;;;;5055307;28;20095;-74
2021/07/17 04:35:41;;;;;;;0.25;0.25;;;;;;;;;;5055192;28;20411;-74
2021/07/17 04:38:08;;;;;;;0.10;0.10;;;;;;;;;;5055558;28;20170;-74
2021/07/17 04:40:34;;;;;;;0.10;0.10;;;;;;;;;;5054957;28;20048;-74
2021/07/17 04:43:00;;;;;;;0.98;0.32;;;;;;;;;;5055411;28;20056;-74
2021/07/17 04:45:26;;;;;;;0.10;0.10;;;;;;;;;;5055585;28;20052;-74
2021/07/17 04:47:52;;;;;;;0.75;0.52;;;;;;;;;;5055130;28;20128;-74
2021/07/17 04:50:19;;;;;;;0.20;0.20;;;;;;;;;;5055449;28;20118;-74
2021/07/17 04:52:45;;;;;;;0.20;0.20;;;;;;;;;;5055233;28;20131;-74
2021/07/17 04:55:11;;;;;;;0.17;0.17;;;;;;;;;;5055283;28;20037;-74
2021/07/17 04:57:37;;;;;;;0.10;0.10;;;;;;;;;;5055320;28;20041;-74
2021/07/17 05:00:04;;;;;;;0.10;0.10;;;;;;;;;;5055538;28;20065;-74
2021/07/17 05:02:30;;;;;;;0.10;0.10;;;;;;;;;;5055015;28;20124;-74
2021/07/17 05:04:57;;;;;;;0.13;0.13;;;;;;;;;;5054990;28;20047;-74
2021/07/17 05:07:23;;;;;;;0.22;0.22;;;;;;;;;;5054859;28;20396;-74
2021/07/17 05:09:49;;;;;;;0.10;0.10;;;;;;;;;;5055451;28;20048;-74
2021/07/17 05:12:15;;;;;;;0.20;0.20;;;;;;;;;;5054132;28;20053;-74
2021/07/17 05:14:41;;;;;;;0.10;0.10;;;;;;;;;;5054706;28;20055;-73
2021/07/17 05:17:07;;;;;;;0.10;0.10;;;;;;;;;;5054854;28;20067;-73
2021/07/17 05:19:33;;;;;;;0.20;0.20;;;;;;;;;;5054524;28;20097;-74
2021/07/17 05:21:59;;;;;;;0.25;0.25;;;;;;;;;;5054416;28;20488;-73
2021/07/17 05:24:26;;;;;;;0.15;0.15;;;;;;;;;;5054825;28;20037;-73
2021/07/17 05:26:52;;;;;;;0.22;0.22;;;;;;;;;;5054745;28;20045;-74
2021/07/17 05:29:18;;;;;;;2.28;0.57;;;;;;;;;;5054530;28;20079;-73
2021/07/17 05:31:44;;;;;;;0.52;0.52;;;;;;;;;;5054740;28;20132;-74
2021/07/17 05:34:10;;;;;;;0.60;0.40;;;;;;;;;;5054243;28;20487;-73
2021/07/17 05:36:36;;;;;;;0.30;0.30;;;;;;;;;;5053962;28;20052;-75
2021/07/17 05:39:03;;;;;;;0.40;0.40;;;;;;;;;;5054415;28;20060;-75
2021/07/17 05:41:29;;;;;;;0.20;0.20;;;;;;;;;;5054394;28;20595;-75
2021/07/17 05:43:55;;;;;;;2.13;0.52;;;;;;;;;;5054668;28;20064;-75
2021/07/17 05:46:21;;;;;;;0.13;0.13;;;;;;;;;;5054685;28;20045;-75
2021/07/17 05:48:47;;;;;;;0.30;0.30;;;;;;;;;;5054226;28;20037;-75
2021/07/17 05:51:13;;;;;;;0.20;0.20;;;;;;;;;;5054677;28;20045;-75
2021/07/17 05:53:39;;;;;;;0.25;0.25;;;;;;;;;;5054658;28;20048;-75
2021/07/17 05:56:06;;;;;;;0.52;0.20;;;;;;;;;;5054350;28;20048;-75
2021/07/17 05:58:32;;;;;;;0.30;0.30;;;;;;;;;;5053857;28;20479;-75
2021/07/17 06:00:58;;;;;;;0.10;0.10;;;;;;;;;;5054039;28;20041;-75
2021/07/17 06:03:25;;;;;;;0.30;0.30;;;;;;;;;;5054205;28;20071;-75
2021/07/17 06:05:51;;;;;;;0.30;0.30;;;;;;;;;;5053670;28;20116;-75
2021/07/17 06:08:17;;;;;;;1.05;0.70;;;;;;;;;;5054325;28;20480;-75
2021/07/17 06:10:43;;;;;;;0.50;0.50;;;;;;;;;;5054146;28;20068;-75
2021/07/17 06:13:09;;;;;;;0.40;0.40;;;;;;;;;;5053627;28;20067;-75
2021/07/17 06:15:36;;;;;;;0.20;0.20;;;;;;;;;;5053749;28;20116;-75
2021/07/17 06:18:02;;;;;;;0.40;0.40;;;;;;;;;;5053976;28;20037;-74
2021/07/17 06:20:28;;;;;;;0.20;0.20;;;;;;;;;;5053795;28;20037;-75
2021/07/17 06:22:54;;;;;;;0.30;0.30;;;;;;;;;;5053583;28;20056;-75
2021/07/17 06:25:21;;;;;;;0.20;0.20;;;;;;;;;;5057495;28;20037;-75
2021/07/17 06:27:47;;;;;;;0.20;0.20;;;;;;;;;;5057717;28;20036;-75
2021/07/17 06:30:13;;;;;;;0.10;0.10;;;;;;;;;;5058062;28;20055;-75
2021/07/17 06:32:39;;;;;;;0.28;0.28;;;;;;;;;;5057354;28;20044;-76
2021/07/17 06:35:06;;;;;;;0.10;0.10;;;;;;;;;;5057203;28;20060;-76
2021/07/17 06:37:32;;;;;;;0.30;0.30;;;;;;;;;;5057792;28;20037;-76
2021/07/17 06:39:58;;;;;;;0.20;0.20;;;;;;;;;;5057884;28;20052;-76
2021/07/17 06:42:24;;;;;;;0.50;0.50;;;;;;;;;;5057091;28;20075;-75
2021/07/17 06:44:50;;;;;;;0.38;0.38;;;;;;;;;;5056925;28;20385;-75
2021/07/17 06:47:17;;;;;;;0.32;0.32;;;;;;;;;;5056920;28;20494;-75
2021/07/17 06:49:43;;;;;;;0.20;0.20;;;;;;;;;;5057198;28;20037;-75
2021/07/17 06:52:09;;;;;;;0.28;0.28;;;;;;;;;;5056962;28;20076;-75
2021/07/17 06:54:35;;;;;;;0.38;0.38;;;;;;;;;;5056977;28;20466;-75
2021/07/17 06:57:01;;;;;;;0.55;0.52;;;;;;;;;;5056879;28;20068;-75
2021/07/17 06:59:27;;;;;;;0.20;0.20;;;;;;;;;;5057291;28;20041;-75
2021/07/17 07:01:53;;;;;;;0.20;0.20;;;;;;;;;;5056628;28;20056;-75
2021/07/17 07:04:19;;;;;;;0.28;0.28;;;;;;;;;;5056556;28;20095;-75
2021/07/17 07:06:46;;;;;;;0.30;0.30;;;;;;;;;;5043464;28;20527;-75
2021/07/17 07:09:12;;;;;;;0.17;0.17;;;;;;;;;;5037039;28;20178;-75
2021/07/17 07:11:39;;;;;;;0.32;0.32;;;;;;;;;;5041636;28;20045;-75
2021/07/17 07:14:06;;;;;;;0.20;0.20;;;;;;;;;;5036081;28;20049;-75
2021/07/17 07:16:32;;;;;;;0.20;0.20;;;;;;;;;;5036603;28;20052;-75
2021/07/17 07:18:58;;;;;;;0.20;0.20;;;;;;;;;;5036447;28;20124;-75
2021/07/17 07:21:24;;;;;;;0.43;0.43;;;;;;;;;;5036541;28;20029;-75
2021/07/17 07:23:50;;;;;;;0.30;0.30;;;;;;;;;;5036387;28;20053;-75
2021/07/17 07:26:16;;;;;;;0.20;0.20;;;;;;;;;;5037046;28;20041;-75
2021/07/17 07:28:42;;;;;;;0.20;0.20;;;;;;;;;;5036343;28;20515;-75
2021/07/17 07:31:08;;;;;;;0.20;0.20;;;;;;;;;;5037026;28;20095;-75
2021/07/17 07:33:35;;;;;;;0.35;0.35;;;;;;;;;;5038642;28;20569;-74
2021/07/17 07:36:01;;;;;;;0.35;0.35;;;;;;;;;;5034944;28;20089;-74
2021/07/17 07:38:27;;;;;;;0.30;0.30;;;;;;;;;;5035966;28;20043;-74
2021/07/17 07:40:53;;;;;;;0.25;0.25;;;;;;;;;;5036191;28;20045;-74
2021/07/17 07:43:19;;;;;;;0.20;0.20;;;;;;;;;;5035606;28;20083;-75
2021/07/17 07:45:45;;;;;;;1.45;0.30;;;;;;;;;;5036328;28;20045;-74
2021/07/17 07:48:11;;;;;;;0.20;0.20;;;;;;;;;;5036271;28;20071;-74
2021/07/17 07:50:38;;;;;;;1.60;0.50;;;;;;;;;;5036149;28;20056;-74
2021/07/17 07:53:04;;;;;;;0.20;0.20;;;;;;;;;;5035963;28;20037;-74
2021/07/17 07:55:30;;;;;;;0.30;0.30;;;;;;;;;;5036158;28;20119;-74
2021/07/17 07:57:56;;;;;;;0.20;0.20;;;;;;;;;;5036168;28;20103;-75
2021/07/17 08:00:22;;;;;;;0.20;0.20;;;;;;;;;;5036111;28;20054;-75
2021/07/17 08:02:48;;;;;;;0.20;0.20;;;;;;;;;;5035709;28;20041;-75
2021/07/17 08:05:14;;;;;;;0.28;0.28;;;;;;;;;;5035797;28;20041;-75
2021/07/17 08:07:41;;;;;;;0.20;0.20;;;;;;;;;;5035789;28;20038;-74
2021/07/17 08:10:07;;;;;;;0.32;0.32;;;;;;;;;;5035647;28;20128;-74
2021/07/17 08:12:33;;;;;;;0.20;0.20;;;;;;;;;;5035529;28;20045;-74
2021/07/17 08:15:00;;;;;;;0.40;0.40;;;;;;;;;;5036008;28;20052;-78
2021/07/17 08:17:26;;;;;;;0.40;0.40;;;;;;;;;;5049964;28;20059;-74
2021/07/17 08:19:52;;;;;;;0.30;0.30;;;;;;;;;;5040559;28;20041;-74
2021/07/17 08:22:18;;;;;;;0.20;0.20;;;;;;;;;;5053443;28;20045;-74
2021/07/17 08:24:44;;;;;;;0.20;0.20;;;;;;;;;;5042568;28;20041;-74
2021/07/17 08:27:10;;;;;;;0.57;0.57;;;;;;;;;;5050365;28;20041;-74
2021/07/17 08:29:36;;;;;;;0.50;0.50;;;;;;;;;;5046937;28;20500;-74
2021/07/17 08:32:02;;;;;;;0.35;0.30;;;;;;;;;;5054091;28;20087;-73
2021/07/17 08:34:29;;;;;;;0.20;0.20;;;;;;;;;;5054854;28;20040;-74
2021/07/17 08:36:55;;;;;;;0.50;0.50;;;;;;;;;;5054233;28;20036;-74
2021/07/17 08:39:21;;;;;;;0.35;0.35;;;;;;;;;;5044823;28;20072;-74
2021/07/17 08:41:49;;;;;;;0.10;0.10;;;;;;;;;;5045830;28;20040;-74
2021/07/17 08:44:16;;;;;;;0.10;0.10;;;;;;;;;;5040831;28;20100;-75
2021/07/17 08:46:42;;;;;;;1.90;0.85;;;;;;;;;;5045661;28;20037;-74
2021/07/17 08:49:11;;;;;;;0.20;0.20;;;;;;;;;;5034916;28;20045;-74
2021/07/17 08:51:37;;;;;;;0.17;0.17;;;;;;;;;;5048468;28;20036;-74
2021/07/17 08:54:03;;;;;;;0.30;0.30;;;;;;;;;;5044464;28;20038;-72
2021/07/17 08:56:30;;;;;;;0.30;0.30;;;;;;;;;;5038263;28;20073;-74
2021/07/17 08:58:57;;;;;;;0.43;0.38;;;;;;;;;;5046642;28;20036;-74
2021/07/17 09:01:23;;;;;;;0.20;0.20;;;;;;;;;;5049297;28;20045;-74
2021/07/17 09:03:50;;;;;;;0.25;0.25;;;;;;;;;;5048662;28;20074;-74
2021/07/17 09:06:16;;;;;;;0.47;0.47;;;;;;;;;;5050601;28;20060;-74
2021/07/17 09:08:42;;;;;;;0.20;0.20;;;;;;;;;;5035434;28;20037;-75
2021/07/17 09:11:08;;;;;;;0.30;0.30;;;;;;;;;;5046915;28;20538;-74
2021/07/17 09:13:35;;;;;;;0.20;0.20;;;;;;;;;;5041648;28;20045;-74
2021/07/17 09:16:09;;;;;;;0.30;0.30;;;;;;;;;;5040728;28;20047;-74
2021/07/17 09:18:37;;;;;;;0.30;0.30;;;;;;;;;;5048089;28;20060;-75
2021/07/17 09:21:04;;;;;;;0.40;0.40;;;;;;;;;;5035394;28;20043;-79
2021/07/17 09:23:33;;;;;;;0.13;0.13;;;;;;;;;;5034266;28;20045;-77
2021/07/17 09:26:01;;;;;;;0.35;0.35;;;;;;;;;;5043410;28;20052;-75
2021/07/17 09:28:32;;;;;;;0.30;0.30;;;;;;;;;;5032612;28;20150;-75
2021/07/17 09:31:00;;;;;;;0.20;0.20;;;;;;;;;;5033690;28;20037;-75
2021/07/17 09:33:26;;;;;;;0.20;0.20;;;;;;;;;;5033384;28;20524;-73
2021/07/17 09:35:53;;;;;;;0.20;0.20;;;;;;;;;;5032553;28;20087;-74
2021/07/17 09:38:20;;;;;;;0.55;0.30;;;;;;;;;;5034142;28;20049;-74
2021/07/17 09:40:50;;;;;;;0.10;0.10;;;;;;;;;;5035011;28;20068;-74
2021/07/17 09:43:34;;;;;;;0.20;0.20;;;;;;;;;;5034322;28;20150;-74
2021/07/17 09:46:02;;;;;;;0.10;0.10;;;;;;;;;;5034335;28;20069;-74
2021/07/17 09:48:30;;;;;;;0.20;0.20;;;;;;;;;;5034391;28;20087;-74
2021/07/17 09:50:57;;;;;;;0.45;0.45;;;;;;;;;;5033941;28;20069;-74
2021/07/17 09:53:38;;;;;;;0.40;0.40;;;;;;;;;;5034591;28;20033;-74
2021/07/17 09:56:18;;;;;;;0.20;0.20;;;;;;;;;;5034478;28;20048;-74
2021/07/17 09:58:44;;;;;;;0.30;0.30;;;;;;;;;;5034656;28;20513;-74
2021/07/17 10:01:15;;;;;;;0.20;0.20;;;;;;;;;;5038526;28;20045;-74
2021/07/17 10:03:41;;;;;;;0.35;0.35;;;;;;;;;;5038184;28;20045;-74
2021/07/17 10:06:08;;;;;;;0.10;0.10;;;;;;;;;;5038122;28;20045;-74
2021/07/17 10:08:35;;;;;;;0.35;0.35;;;;;;;;;;5038267;28;20073;-74
2021/07/17 10:11:11;;;;;;;0.10;0.10;;;;;;;;;;5037533;28;20041;-74
2021/07/17 10:13:37;;;;;;;0.10;0.10;;;;;;;;;;5038450;28;20054;-74
2021/07/17 10:16:15;;;;;;;0.30;0.30;;;;;;;;;;5038391;28;20087;-74
2021/07/17 10:18:42;;;;;;;0.30;0.30;;;;;;;;;;5038294;28;20077;-74
2021/07/17 10:21:08;;;;;;;0.20;0.20;;;;;;;;;;5038155;28;20099;-74
2021/07/17 10:23:34;;;;;;;0.20;0.20;;;;;;;;;;5037851;28;20076;-73
2021/07/17 10:26:01;;;;;;;0.32;0.32;;;;;;;;;;5037843;28;20033;-74
2021/07/17 10:28:27;;;;;;;0.10;0.10;;;;;;;;;;5046778;28;20510;-74
2021/07/17 10:30:53;;;;;;;0.45;0.45;;;;;;;;;;5043441;28;20051;-74
2021/07/17 10:33:20;;;;;;;0.40;0.40;;;;;;;;;;5050936;28;20056;-75
2021/07/17 10:35:47;;;;;;;0.40;0.40;;;;;;;;;;5056885;28;20041;-75
2021/07/17 10:38:13;;;;;;;0.28;0.28;;;;;;;;;;5045940;28;20037;-75
2021/07/17 10:40:40;;;;;;;0.35;0.35;;;;;;;;;;5049728;28;20045;-75
2021/07/17 10:43:07;;;;;;;0.10;0.10;;;;;;;;;;5039427;28;20045;-75
2021/07/17 10:45:42;;;;;;;0.57;0.57;;;;;;;;;;5037267;28;20041;-75
2021/07/17 10:48:26;;;;;;;0.20;0.20;;;;;;;;;;5036877;28;20075;-75
2021/07/17 10:50:53;;;;;;;0.20;0.20;;;;;;;;;;5037683;28;20033;-75
2021/07/17 10:53:37;;;;;;;0.10;0.10;;;;;;;;;;5037639;28;20095;-75
2021/07/17 10:56:22;;;;;;;0.80;0.60;;;;;;;;;;5036462;28;20433;-75
2021/07/17 10:58:48;;;;;;;0.20;0.20;;;;;;;;;;5037764;28;20523;-75
2021/07/17 11:01:14;;;;;;;0.22;0.22;;;;;;;;;;5037303;28;20041;-76
2021/07/17 11:03:41;;;;;;;0.20;0.20;;;;;;;;;;5036902;28;20133;-75
2021/07/17 11:06:27;;;;;;;0.10;0.10;;;;;;;;;;5037232;28;20041;-76
2021/07/17 11:08:54;;;;;;;0.25;0.25;;;;;;;;;;5037036;28;20069;-75
2021/07/17 11:11:30;;;;;;;0.35;0.35;;;;;;;;;;5036241;28;20489;-75
2021/07/17 11:13:57;;;;;;;0.82;0.60;;;;;;;;;;5037192;28;20441;-74
2021/07/17 11:16:39;;;;;;;0.20;0.20;;;;;;;;;;5036707;28;20064;-75
2021/07/17 11:19:14;;;;;;;0.30;0.30;;;;;;;;;;5036728;28;20037;-75
2021/07/17 11:21:40;;;;;;;0.35;0.35;;;;;;;;;;5036846;28;20037;-75
2021/07/17 11:24:07;;;;;;;0.38;0.38;;;;;;;;;;5036732;28;20107;-75
2021/07/17 11:26:33;;;;;;;0.28;0.28;;;;;;;;;;5036802;28;20033;-75
2021/07/17 11:29:04;;;;;;;0.20;0.20;;;;;;;;;;5037278;28;20049;-75
2021/07/17 11:31:31;;;;;;;0.20;0.20;;;;;;;;;;5036723;28;20099;-75
2021/07/17 11:34:14;;;;;;;0.32;0.32;;;;;;;;;;5036053;28;20044;-75
2021/07/17 11:36:58;;;;;;;0.20;0.20;;;;;;;;;;5036462;28;20092;-75
2021/07/17 11:39:26;;;;;;;0.57;0.57;;;;;;;;;;5036920;28;20053;-75
2021/07/17 11:41:52;;;;;;;0.10;0.10;;;;;;;;;;5036684;28;20037;-75
2021/07/17 11:44:18;;;;;;;0.20;0.20;;;;;;;;;;5036364;28;20042;-75
2021/07/17 11:46:59;;;;;;;0.20;0.20;;;;;;;;;;5036029;28;20512;-75
2021/07/17 11:49:30;;;;;;;0.30;0.30;;;;;;;;;;5035387;28;20049;-75
2021/07/17 11:51:57;;;;;;;0.20;0.20;;;;;;;;;;5033778;28;20048;-74
2021/07/17 11:54:34;;;;;;;0.20;0.20;;;;;;;;;;5035512;28;20049;-74
2021/07/17 11:57:11;;;;;;;0.10;0.10;;;;;;;;;;5035915;28;20500;-74
2021/07/17 11:59:38;;;;;;;0.20;0.20;;;;;;;;;;5035662;28;20042;-74
2021/07/17 12:02:08;;;;;;;0.30;0.30;;;;;;;;;;5035425;28;20388;-74
2021/07/17 12:04:39;;;;;;;1.25;0.50;;;;;;;;;;5035475;28;20138;-74
2021/07/17 12:07:08;;;;;;;0.25;0.25;;;;;;;;;;5036164;28;20045;-74
2021/07/17 12:10:12;;;;;;;0.30;0.30;;;;;;;;;;5035417;28;20073;-74
2021/07/17 12:12:40;;;;;;;0.20;0.20;;;;;;;;;;5007937;28;20062;-74
2021/07/17 12:15:07;;;;;;;0.17;0.17;;;;;;;;;;4993797;28;20121;-73
2021/07/17 12:17:35;;;;;;;0.20;0.20;;;;;;;;;;4994975;28;20046;-75
2021/07/17 12:20:10;;;;;;;0.32;0.32;;;;;;;;;;4996327;28;20042;-75
2021/07/17 12:22:37;;;;;;;0.22;0.22;;;;;;;;;;4995804;28;20054;-74
2021/07/17 12:25:08;;;;;;;0.22;0.22;;;;;;;;;;4996578;28;20089;-75
2021/07/17 12:27:34;;;;;;;;;;;;;;;;;;4996544;28;20127;-75
2021/07/17 12:30:00;;;;;;;0.50;0.47;;;;;;;;;;4995831;28;19964;-75
2021/07/17 12:32:26;;;;;;;0.20;0.20;;;;;;;;;;5000284;28;20045;-75
2021/07/17 12:34:56;;;;;;;0.30;0.30;;;;;;;;;;5002752;28;20108;-75
2021/07/17 12:37:29;;;;;;;0.20;0.20;;;;;;;;;;5003794;28;20109;-75
2021/07/17 12:40:11;;;;;;;0.43;0.43;;;;;;;;;;5004089;28;20045;-75
2021/07/17 12:42:47;;;;;;;0.20;0.20;;;;;;;;;;5004700;28;20066;-74
2021/07/17 12:45:17;;;;;;;0.55;0.20;;;;;;;;;;5004271;28;20041;-76
2021/07/17 12:47:55;;;;;;;0.10;0.10;;;;;;;;;;5002908;28;20038;-75
2021/07/17 12:50:27;;;;;;;0.10;0.10;;;;;;;;;;5002496;28;20505;-76
2021/07/17 12:53:12;;;;;;;0.30;0.30;;;;;;;;;;5003619;28;20048;-75
2021/07/17 12:55:45;;;;;;;0.20;0.20;;;;;;;;;;5004702;28;20042;-76
2021/07/17 12:58:11;;;;;;;0.22;0.22;;;;;;;;;;5015293;28;20042;-76
2021/07/17 13:00:39;;;;;;;0.30;0.30;;;;;;;;;;5015562;28;20084;-76
2021/07/17 13:03:06;;;;;;;1.73;0.40;;;;;;;;;;5015477;28;20046;-76
2021/07/17 13:06:01;;;;;;;0.35;0.35;;;;;;;;;;5015268;28;20042;-76
2021/07/17 13:08:28;;;;;;;0.50;0.50;;;;;;;;;;5010182;28;20068;-76
2021/07/17 13:10:55;;;;;;;0.22;0.22;;;;;;;;;;5015103;28;20038;-76
2021/07/17 13:13:25;;;;;;;0.13;0.13;;;;;;;;;;5038172;28;20064;-75
2021/07/17 13:15:55;;;;;;;0.22;0.22;;;;;;;;;;5054509;28;20056;-72
2021/07/17 13:18:22;;;;;;;0.10;0.10;;;;;;;;;;5054566;28;20041;-75
2021/07/17 13:20:58;;;;;;;0.20;0.20;;;;;;;;;;5054492;28;20076;-71
2021/07/17 13:23:25;;;;;;;0.20;0.20;;;;;;;;;;5054221;28;20520;-71
2021/07/17 13:25:51;;;;;;;0.10;0.10;;;;;;;;;;5054210;28;20051;-72
2021/07/17 13:28:17;;;;;;;0.20;0.20;;;;;;;;;;5054424;28;20040;-72
2021/07/17 13:30:44;;;;;;;0.20;0.20;;;;;;;;;;5055072;28;20037;-72
2021/07/17 13:33:13;;;;;;;0.82;0.35;;;;;;;;;;5054008;28;20082;-72
2021/07/17 13:35:41;;;;;;;0.20;0.20;;;;;;;;;;5054013;28;20037;-71
2021/07/17 13:38:07;;;;;;;0.30;0.30;;;;;;;;;;5054364;28;20040;-72
2021/07/17 13:40:35;;;;;;;0.32;0.32;;;;;;;;;;5054724;28;20049;-72
2021/07/17 13:43:03;;;;;;;0.30;0.30;;;;;;;;;;5054039;28;20132;-72
2021/07/17 13:45:29;;;;;;;0.30;0.30;;;;;;;;;;5054131;28;20044;-71
2021/07/17 13:47:56;;;;;;;2.47;0.75;;;;;;;;;;5053775;28;20059;-71
2021/07/17 13:50:23;;;;;;;0.20;0.20;;;;;;;;;;5054222;28;20072;-72
2021/07/17 13:52:58;;;;;;;0.10;0.10;;;;;;;;;;5047357;28;20048;-72
2021/07/17 13:55:26;;;;;;;0.22;0.22;;;;;;;;;;5035725;28;20096;-72
2021/07/17 13:58:02;;;;;;;0.20;0.20;;;;;;;;;;5033825;28;20042;-71
2021/07/17 14:00:38;;;;;;;1.75;0.30;;;;;;;;;;5033638;28;20037;-72
2021/07/17 14:03:04;;;;;;;0.20;0.20;;;;;;;;;;5033718;28;20048;-72
2021/07/17 14:05:31;;;;;;;0.20;0.20;;;;;;;;;;5033812;28;20041;-72
2021/07/17 14:07:57;;;;;;;0.20;0.20;;;;;;;;;;5033838;28;20037;-72
2021/07/17 14:10:23;;;;;;;1.48;0.55;;;;;;;;;;5033529;28;20526;-71
2021/07/17 14:12:49;;;;;;;0.20;0.20;;;;;;;;;;5033541;28;20057;-71
2021/07/17 14:15:15;;;;;;;0.20;0.20;;;;;;;;;;5033751;28;20038;-72
2021/07/17 14:17:41;;;;;;;0.17;0.17;;;;;;;;;;5034463;28;20037;-71
2021/07/17 14:20:08;;;;;;;0.20;0.20;;;;;;;;;;5034243;28;20053;-71
2021/07/17 14:22:34;;;;;;;0.20;0.20;;;;;;;;;;5033756;28;20081;-71
2021/07/17 14:25:00;;;;;;;0.20;0.20;;;;;;;;;;5033595;28;20048;-71
2021/07/17 14:27:26;;;;;;;0.20;0.20;;;;;;;;;;5033557;28;20041;-71
2021/07/17 14:29:54;;;;;;;0.20;0.20;;;;;;;;;;5033366;28;20419;-71
2021/07/17 14:32:20;;;;;;;0.20;0.20;;;;;;;;;;5033521;28;20132;-71
2021/07/17 14:34:46;;;;;;;0.28;0.28;;;;;;;;;;5033483;28;20080;-71
2021/07/17 14:37:12;;;;;;;2.33;0.40;;;;;;;;;;5033739;28;20048;-72
2021/07/17 14:39:39;;;;;;;0.20;0.20;;;;;;;;;;5033786;28;20381;-71
2021/07/17 14:42:05;;;;;;;0.10;0.10;;;;;;;;;;5033606;28;20040;-71
2021/07/17 14:44:31;;;;;;;0.10;0.10;;;;;;;;;;5033636;28;20112;-71
2021/07/17 14:46:57;;;;;;;0.30;0.30;;;;;;;;;;5037802;28;20049;-71